createdAt,value
2023-05-09T00:00:56.335Z,3.67
2023-05-09T00:03:23.995Z,3.71
2023-05-09T00:05:51.724Z,3.72
2023-05-09T00:08:19.470Z,3.72
2023-05-09T00:10:47.381Z,3.75
2023-05-09T00:13:14.776Z,3.73
2023-05-09T00:15:43.042Z,3.78
2023-05-09T00:18:10.186Z,3.76
2023-05-09T00:20:38.129Z,3.82
2023-05-09T00:23:06.325Z,3.82
2023-05-09T00:25:34.342Z,3.82
2023-05-09T00:28:02.861Z,3.79
2023-05-09T00:30:30.101Z,3.86
2023-05-09T00:32:58.656Z,3.88
2023-05-09T00:35:27.120Z,3.94
2023-05-09T00:37:54.912Z,3.91
2023-05-09T00:40:23.035Z,3.96
2023-05-09T00:42:50.102Z,3.96
2023-05-09T00:45:17.464Z,4.00
2023-05-09T00:47:44.558Z,4.01
2023-05-09T00:50:11.696Z,3.98
2023-05-09T00:52:39.165Z,4.01
2023-05-09T00:55:08.602Z,4.03
2023-05-09T00:57:36.774Z,4.05
2023-05-09T01:00:11.125Z,4.08
2023-05-09T01:02:38.322Z,4.15
2023-05-09T01:05:06.033Z,4.19
2023-05-09T01:07:46.162Z,4.27
2023-05-09T01:10:18.837Z,4.32
2023-05-09T01:12:48.723Z,4.33
2023-05-09T01:15:22.758Z,4.32
2023-05-09T01:18:04.192Z,4.35
2023-05-09T01:20:38.408Z,4.41
2023-05-09T01:23:44.348Z,4.40
2023-05-09T01:26:55.248Z,4.45
2023-05-09T01:29:35.609Z,4.50
2023-05-09T01:32:15.937Z,4.55
2023-05-09T01:34:45.796Z,4.64
2023-05-09T01:37:18.926Z,4.72
2023-05-09T01:39:52.464Z,4.81
2023-05-09T01:42:21.657Z,4.86
2023-05-09T01:44:49.978Z,4.96
2023-05-09T01:47:20.126Z,5.05
2023-05-09T01:49:48.436Z,5.09
2023-05-09T01:52:19.396Z,5.20
2023-05-09T01:54:46.901Z,5.29
2023-05-09T01:57:15.123Z,5.37
2023-05-09T01:59:44.708Z,5.44
2023-05-09T02:02:12.672Z,5.52
2023-05-09T02:04:42.612Z,5.58
2023-05-09T02:07:12.267Z,5.65
2023-05-09T02:09:39.643Z,5.70
2023-05-09T02:12:07.576Z,5.73
2023-05-09T02:14:35.701Z,5.81
2023-05-09T02:17:07.304Z,5.87
2023-05-09T02:19:35.920Z,5.92
2023-05-09T02:22:05.354Z,5.98
2023-05-09T02:24:34.540Z,6.03
2023-05-09T02:27:04.769Z,6.06
2023-05-09T02:29:43.419Z,6.08
2023-05-09T02:32:17.293Z,6.13
2023-05-09T02:34:47.331Z,6.18
2023-05-09T02:37:15.144Z,6.23
2023-05-09T02:39:42.617Z,6.23
2023-05-09T02:42:12.577Z,6.28
2023-05-09T02:44:40.032Z,6.30
2023-05-09T02:47:07.903Z,6.29
2023-05-09T02:49:37.229Z,6.34
2023-05-09T02:52:05.790Z,6.37
2023-05-09T02:54:33.981Z,6.37
2023-05-09T02:57:01.713Z,6.42
2023-05-09T02:59:29.215Z,6.42
2023-05-09T03:02:00.315Z,6.49
2023-05-09T03:04:28.894Z,6.54
2023-05-09T03:06:56.390Z,6.62
2023-05-09T03:09:27.048Z,6.65
2023-05-09T03:11:57.499Z,6.69
2023-05-09T03:14:26.333Z,6.75
2023-05-09T03:16:55.930Z,6.84
2023-05-09T03:19:33.814Z,6.92
2023-05-09T03:22:01.638Z,7.02
2023-05-09T03:24:31.639Z,7.08
2023-05-09T03:26:59.778Z,7.12
2023-05-09T03:29:28.110Z,7.23
2023-05-09T03:31:56.101Z,7.30
2023-05-09T03:34:24.106Z,7.44
2023-05-09T03:36:52.029Z,7.51
2023-05-09T03:39:19.762Z,7.65
2023-05-09T03:41:49.687Z,7.73
2023-05-09T03:44:18.067Z,7.83
2023-05-09T03:46:45.438Z,7.82
2023-05-09T03:49:13.116Z,7.98
2023-05-09T03:51:42.152Z,8.04
2023-05-09T03:54:15.042Z,8.31
2023-05-09T03:56:43.545Z,8.54
2023-05-09T03:59:11.445Z,8.81
2023-05-09T04:01:40.434Z,9.05
2023-05-09T04:04:10.190Z,9.06
2023-05-09T04:06:38.267Z,9.15
2023-05-09T04:09:10.376Z,9.74
2023-05-09T04:11:37.629Z,10.12
2023-05-09T04:14:10.861Z,10.35
2023-05-09T04:16:38.724Z,10.39
2023-05-09T04:19:09.709Z,10.36
2023-05-09T04:21:37.922Z,10.32
2023-05-09T04:24:06.645Z,10.35
2023-05-09T04:26:40.709Z,10.30
2023-05-09T04:29:12.980Z,10.35
2023-05-09T04:31:41.383Z,10.45
2023-05-09T04:34:12.456Z,10.47
2023-05-09T04:36:39.808Z,11.02
2023-05-09T04:39:08.489Z,11.42
2023-05-09T04:41:37.983Z,11.30
2023-05-09T04:44:05.497Z,11.29
2023-05-09T04:46:32.866Z,11.20
2023-05-09T04:48:59.954Z,11.23
2023-05-09T04:51:26.998Z,11.24
2023-05-09T04:53:54.598Z,11.30
2023-05-09T04:56:27.236Z,11.39
2023-05-09T04:58:54.974Z,11.35
2023-05-09T05:01:22.188Z,11.39
2023-05-09T05:03:50.518Z,11.44
2023-05-09T05:06:18.215Z,11.58
2023-05-09T05:08:46.175Z,11.70
2023-05-09T05:11:13.875Z,11.74
2023-05-09T05:13:41.174Z,11.69
2023-05-09T05:16:08.591Z,11.81
2023-05-09T05:18:36.189Z,11.95
2023-05-09T05:21:03.530Z,12.05
2023-05-09T05:23:31.014Z,12.10
2023-05-09T05:25:58.854Z,12.20
2023-05-09T05:28:26.603Z,12.42
2023-05-09T05:30:53.705Z,12.61
2023-05-09T05:33:20.692Z,12.77
2023-05-09T05:35:49.161Z,13.02
2023-05-09T05:38:16.468Z,13.39
2023-05-09T05:40:48.812Z,14.10
2023-05-09T05:43:16.604Z,14.55
2023-05-09T05:45:43.860Z,14.60
2023-05-09T05:48:16.693Z,14.86
2023-05-09T05:50:44.236Z,15.02
2023-05-09T05:53:15.472Z,15.10
2023-05-09T05:55:46.527Z,15.51
2023-05-09T05:58:14.208Z,15.87
2023-05-09T06:00:41.624Z,15.93
2023-05-09T06:03:14.747Z,16.25
2023-05-09T06:05:49.154Z,16.33
2023-05-09T06:08:17.394Z,16.72
2023-05-09T06:10:44.667Z,16.62
2023-05-09T06:13:12.015Z,16.81
2023-05-09T06:15:43.453Z,16.98
2023-05-09T06:18:11.792Z,17.07
2023-05-09T06:20:39.476Z,17.37
2023-05-09T06:23:07.347Z,17.62
2023-05-09T06:25:35.174Z,17.86
2023-05-09T06:28:03.340Z,18.43
2023-05-09T06:30:31.155Z,18.78
2023-05-09T06:32:59.466Z,18.88
2023-05-09T06:35:27.355Z,18.86
2023-05-09T06:37:55.230Z,18.68
2023-05-09T06:40:22.334Z,18.70
2023-05-09T06:42:49.620Z,18.99
2023-05-09T06:45:20.176Z,19.58
2023-05-09T06:47:48.531Z,19.63
2023-05-09T06:50:16.705Z,19.66
2023-05-09T06:52:44.759Z,19.93
2023-05-09T06:55:13.047Z,19.56
2023-05-09T06:57:41.261Z,19.45
2023-05-09T07:00:09.900Z,19.65
2023-05-09T07:02:42.410Z,19.96
2023-05-09T07:05:11.186Z,19.92
2023-05-09T07:07:39.168Z,20.14
2023-05-09T07:10:12.033Z,19.99
2023-05-09T07:12:41.098Z,19.68
2023-05-09T07:15:10.224Z,19.62
2023-05-09T07:17:37.832Z,19.56
2023-05-09T07:20:06.341Z,19.69
2023-05-09T07:22:36.369Z,19.69
2023-05-09T07:25:07.810Z,20.11
2023-05-09T07:27:37.175Z,20.41
2023-05-09T07:30:07.132Z,20.63
2023-05-09T07:32:34.849Z,21.25
2023-05-09T07:35:03.165Z,21.04
2023-05-09T07:37:31.020Z,21.18
2023-05-09T07:39:59.612Z,20.83
2023-05-09T07:42:27.137Z,20.76
2023-05-09T07:44:55.791Z,21.27
2023-05-09T07:47:25.246Z,22.24
2023-05-09T07:49:53.172Z,22.45
2023-05-09T07:52:22.351Z,22.15
2023-05-09T07:54:50.311Z,21.85
2023-05-09T07:57:18.322Z,21.96
2023-05-09T07:59:45.879Z,21.53
2023-05-09T08:02:13.419Z,21.92
2023-05-09T08:04:41.901Z,21.81
2023-05-09T08:07:12.896Z,21.47
2023-05-09T08:09:41.103Z,20.78
2023-05-09T08:12:09.057Z,20.76
2023-05-09T08:14:37.092Z,20.63
2023-05-09T08:17:05.118Z,20.66
2023-05-09T08:19:33.582Z,20.69
2023-05-09T08:22:01.064Z,20.68
2023-05-09T08:24:28.757Z,20.52
2023-05-09T08:26:57.423Z,20.49
2023-05-09T08:29:24.928Z,20.96
2023-05-09T08:31:53.285Z,21.29
2023-05-09T08:34:21.377Z,21.05
2023-05-09T08:36:48.830Z,20.73
2023-05-09T08:39:17.187Z,20.91
2023-05-09T08:41:45.315Z,21.09
2023-05-09T08:44:13.705Z,20.77
2023-05-09T08:46:45.279Z,20.96
2023-05-09T08:49:13.141Z,21.44
2023-05-09T08:51:45.503Z,21.95
2023-05-09T08:54:13.276Z,22.35
2023-05-09T08:56:42.067Z,22.34
2023-05-09T08:59:10.718Z,21.51
2023-05-09T09:01:39.274Z,21.63
2023-05-09T09:04:08.530Z,21.99
2023-05-09T09:06:37.156Z,22.46
2023-05-09T09:09:06.695Z,23.04
2023-05-09T09:11:36.980Z,23.40
2023-05-09T09:14:14.042Z,22.88
2023-05-09T09:16:45.421Z,23.00
2023-05-09T09:19:17.673Z,22.28
2023-05-09T09:21:51.369Z,21.80
2023-05-09T09:24:23.389Z,21.57
2023-05-09T09:26:52.141Z,21.61
2023-05-09T09:29:23.225Z,21.50
2023-05-09T09:31:55.663Z,21.17
2023-05-09T09:34:24.373Z,20.34
2023-05-09T09:36:52.996Z,19.75
2023-05-09T09:39:22.703Z,19.81
2023-05-09T09:41:51.175Z,19.76
2023-05-09T09:44:21.848Z,19.67
2023-05-09T09:46:51.237Z,19.71
2023-05-09T09:49:21.999Z,20.11
2023-05-09T09:51:54.732Z,20.23
2023-05-09T09:54:26.950Z,20.20
2023-05-09T09:56:57.208Z,20.14
2023-05-09T09:59:28.064Z,20.52
2023-05-09T10:02:07.572Z,20.29
2023-05-09T10:04:39.532Z,20.57
2023-05-09T10:07:14.345Z,21.91
2023-05-09T10:09:44.301Z,23.05
2023-05-09T10:12:15.019Z,24.81
2023-05-09T10:14:48.529Z,26.84
2023-05-09T10:17:18.422Z,26.46
2023-05-09T10:19:48.177Z,26.60
2023-05-09T10:22:20.196Z,26.17
2023-05-09T10:25:02.580Z,26.43
2023-05-09T10:27:32.824Z,26.63
2023-05-09T10:30:08.838Z,27.15
2023-05-09T10:33:03.307Z,26.78
2023-05-09T10:35:37.293Z,27.28
2023-05-09T10:38:05.403Z,28.11
2023-05-09T10:40:34.925Z,29.11
2023-05-09T10:43:02.798Z,29.04
2023-05-09T10:45:31.037Z,29.29
2023-05-09T10:47:59.519Z,29.64
2023-05-09T10:50:27.839Z,30.28
2023-05-09T10:53:05.245Z,31.50
2023-05-09T10:55:48.780Z,32.29
2023-05-09T10:58:20.988Z,33.04
2023-05-09T11:00:54.658Z,33.06
2023-05-09T11:03:25.885Z,31.80
2023-05-09T11:05:57.341Z,30.94
2023-05-09T11:08:30.906Z,30.32
2023-05-09T11:11:02.613Z,28.21
2023-05-09T11:13:39.081Z,27.46
2023-05-09T11:16:12.992Z,28.29
2023-05-09T11:18:53.208Z,29.80
2023-05-09T11:21:21.755Z,31.34
2023-05-09T11:23:51.853Z,32.18
2023-05-09T11:26:24.146Z,32.92
2023-05-09T11:28:54.681Z,32.20
2023-05-09T11:31:22.914Z,31.74
2023-05-09T11:33:56.909Z,30.91
2023-05-09T11:36:34.012Z,30.21
2023-05-09T11:39:12.345Z,30.03
2023-05-09T11:41:50.235Z,30.63
2023-05-09T11:44:20.789Z,29.74
2023-05-09T11:46:50.818Z,29.03
2023-05-09T11:49:20.009Z,28.78
2023-05-09T11:51:46.947Z,28.28
2023-05-09T11:54:15.582Z,27.93
2023-05-09T11:56:43.495Z,28.15
2023-05-09T11:59:13.564Z,27.63
2023-05-09T12:01:41.024Z,27.12
2023-05-09T12:04:09.636Z,26.43
2023-05-09T12:06:38.279Z,25.93
2023-05-09T12:09:06.710Z,26.22
2023-05-09T12:11:35.183Z,26.46
2023-05-09T12:14:02.838Z,26.85
2023-05-09T12:16:31.282Z,27.50
2023-05-09T12:18:58.675Z,28.46
2023-05-09T12:21:26.285Z,29.38
2023-05-09T12:23:56.523Z,30.79
2023-05-09T12:26:24.205Z,31.49
2023-05-09T12:28:52.277Z,31.60
2023-05-09T12:31:21.211Z,31.14
2023-05-09T12:33:49.012Z,29.99
2023-05-09T12:36:17.043Z,29.36
2023-05-09T12:38:55.653Z,28.21
2023-05-09T12:43:56.095Z,26.43
2023-05-09T12:46:23.970Z,25.65
2023-05-09T12:48:51.914Z,24.81
2023-05-09T12:51:21.234Z,24.25
2023-05-09T12:53:49.614Z,24.15
2023-05-09T12:56:20.138Z,23.68
2023-05-09T12:58:55.316Z,22.68
2023-05-09T13:01:30.039Z,22.08
2023-05-09T13:04:06.786Z,21.73
2023-05-09T13:06:35.021Z,21.31
2023-05-09T13:09:06.609Z,21.33
2023-05-09T13:11:34.398Z,21.43
2023-05-09T13:14:04.626Z,21.59
2023-05-09T13:16:32.250Z,21.25
2023-05-09T13:19:01.868Z,21.32
2023-05-09T13:21:29.532Z,21.57
2023-05-09T13:23:57.301Z,21.46
2023-05-09T13:26:24.531Z,21.20
2023-05-09T13:28:52.525Z,21.17
2023-05-09T13:31:20.229Z,21.08
2023-05-09T13:33:50.014Z,20.88
2023-05-09T13:36:20.379Z,20.82
2023-05-09T13:38:48.051Z,20.57
2023-05-09T13:41:20.557Z,20.54
2023-05-09T13:43:48.083Z,20.56
2023-05-09T13:46:16.013Z,20.44
2023-05-09T13:48:44.755Z,19.93
2023-05-09T13:51:12.421Z,19.57
2023-05-09T13:53:39.809Z,19.22
2023-05-09T13:56:09.967Z,19.11
2023-05-09T13:58:38.148Z,19.15
2023-05-09T14:01:08.799Z,18.89
2023-05-09T14:03:36.727Z,18.78
2023-05-09T14:06:04.637Z,18.95
2023-05-09T14:08:32.538Z,19.07
2023-05-09T14:11:00.556Z,19.34
2023-05-09T14:13:28.907Z,19.39
2023-05-09T14:15:56.268Z,19.13
2023-05-09T14:18:23.901Z,19.11
2023-05-09T14:20:51.635Z,19.39
2023-05-09T14:23:19.707Z,19.56
2023-05-09T14:25:50.686Z,19.64
2023-05-09T14:28:18.498Z,19.66
2023-05-09T14:30:45.796Z,19.25
2023-05-09T14:33:13.484Z,18.95
2023-05-09T14:35:41.654Z,18.65
2023-05-09T14:38:10.259Z,18.25
2023-05-09T14:40:37.655Z,18.15
2023-05-09T14:43:06.283Z,17.77
2023-05-09T14:45:34.338Z,17.52
2023-05-09T14:48:05.911Z,17.24
2023-05-09T14:50:34.653Z,17.04
2023-05-09T14:53:04.057Z,16.66
2023-05-09T14:55:32.056Z,16.56
2023-05-09T14:58:00.000Z,16.54
2023-05-09T15:00:28.948Z,16.40
2023-05-09T15:02:57.160Z,16.34
2023-05-09T15:05:24.727Z,16.03
2023-05-09T15:07:52.529Z,15.92
2023-05-09T15:10:20.185Z,15.84
2023-05-09T15:12:48.653Z,15.74
2023-05-09T15:15:19.512Z,15.77
2023-05-09T15:17:47.766Z,15.92
2023-05-09T15:20:16.494Z,15.97
2023-05-09T15:22:45.505Z,16.05
2023-05-09T15:25:13.206Z,16.12
2023-05-09T15:27:41.031Z,16.06
2023-05-09T15:30:10.457Z,15.87
2023-05-09T15:32:41.694Z,15.62
2023-05-09T15:35:09.675Z,15.48
2023-05-09T15:37:38.495Z,15.33
2023-05-09T15:40:06.515Z,15.05
2023-05-09T15:42:34.348Z,15.16
2023-05-09T15:45:01.951Z,15.03
2023-05-09T15:47:29.719Z,15.08
2023-05-09T15:49:57.855Z,14.86
2023-05-09T15:52:25.561Z,14.85
2023-05-09T15:54:56.209Z,14.73
2023-05-09T15:57:25.364Z,14.73
2023-05-09T15:59:56.517Z,14.80
2023-05-09T16:02:24.316Z,14.79
2023-05-09T16:04:52.302Z,14.59
2023-05-09T16:07:20.884Z,14.60
2023-05-09T16:09:50.736Z,14.57
2023-05-09T16:12:18.170Z,14.56
2023-05-09T16:14:45.908Z,14.42
2023-05-09T16:17:13.164Z,14.31
2023-05-09T16:19:40.987Z,14.15
2023-05-09T16:22:08.418Z,14.03
2023-05-09T16:24:37.420Z,13.94
2023-05-09T16:27:05.587Z,13.77
2023-05-09T16:29:33.642Z,13.69
2023-05-09T16:32:01.591Z,13.59
2023-05-09T16:34:29.526Z,13.45
2023-05-09T16:36:56.977Z,13.41
2023-05-09T16:39:24.366Z,13.31
2023-05-09T16:41:52.145Z,13.21
2023-05-09T16:44:20.117Z,13.10
2023-05-09T16:46:48.185Z,13.08
2023-05-09T16:49:15.995Z,12.93
2023-05-09T16:51:46.283Z,12.87
2023-05-09T16:54:14.482Z,12.71
2023-05-09T16:56:42.818Z,12.43
2023-05-09T16:59:10.084Z,12.36
2023-05-09T17:01:38.152Z,12.26
2023-05-09T17:04:07.351Z,12.16
2023-05-09T17:06:35.091Z,12.08
2023-05-09T17:09:02.478Z,11.89
2023-05-09T17:11:29.792Z,11.66
2023-05-09T17:13:57.419Z,11.61
2023-05-09T17:16:25.978Z,11.50
2023-05-09T17:18:54.569Z,11.41
2023-05-09T17:21:23.352Z,11.26
2023-05-09T17:23:54.491Z,11.12
2023-05-09T17:26:22.665Z,10.95
2023-05-09T17:28:50.407Z,10.84
2023-05-09T17:31:17.983Z,10.77
2023-05-09T17:33:45.427Z,10.63
2023-05-09T17:36:13.572Z,10.52
2023-05-09T17:38:41.452Z,10.35
2023-05-09T17:41:08.538Z,10.27
2023-05-09T17:43:36.335Z,10.14
2023-05-09T17:46:05.771Z,10.03
2023-05-09T17:48:34.210Z,9.89
2023-05-09T17:51:01.474Z,9.77
2023-05-09T17:53:28.959Z,9.66
2023-05-09T17:55:58.574Z,9.52
2023-05-09T17:58:27.692Z,9.40
2023-05-09T18:00:59.847Z,9.33
2023-05-09T18:03:32.383Z,9.16
2023-05-09T18:06:02.438Z,8.99
2023-05-09T18:08:30.057Z,8.89
2023-05-09T18:10:58.068Z,8.82
2023-05-09T18:13:25.626Z,8.70
2023-05-09T18:15:55.553Z,8.59
2023-05-09T18:18:23.304Z,8.52
2023-05-09T18:20:50.690Z,8.45
2023-05-09T18:23:18.140Z,8.41
2023-05-09T18:25:45.773Z,8.35
2023-05-09T18:28:12.893Z,8.31
2023-05-09T18:30:40.732Z,8.24
2023-05-09T18:33:08.689Z,8.16
2023-05-09T18:35:35.889Z,8.11
2023-05-09T18:38:03.052Z,8.06
2023-05-09T18:40:30.928Z,7.99
2023-05-09T18:42:58.135Z,7.90
2023-05-09T18:45:25.719Z,7.75
2023-05-09T18:47:53.267Z,7.61
2023-05-09T18:50:20.783Z,7.48
2023-05-09T18:52:47.932Z,7.38
2023-05-09T18:55:16.133Z,7.29
2023-05-09T18:57:43.596Z,7.19
2023-05-09T19:00:11.646Z,7.08
2023-05-09T19:02:39.884Z,6.97
2023-05-09T19:05:10.077Z,6.86
2023-05-09T19:07:39.664Z,6.76
2023-05-09T19:10:10.815Z,6.68
2023-05-09T19:12:38.210Z,6.61
2023-05-09T19:15:06.258Z,6.55
2023-05-09T19:17:34.003Z,6.50
2023-05-09T19:20:02.866Z,6.45
2023-05-09T19:22:30.620Z,6.44
2023-05-09T19:24:59.091Z,6.48
2023-05-09T19:27:26.515Z,6.50
2023-05-09T19:29:54.257Z,6.52
2023-05-09T19:32:21.705Z,6.50
2023-05-09T19:34:48.810Z,6.45
2023-05-09T19:37:16.173Z,6.41
2023-05-09T19:39:44.021Z,6.37
2023-05-09T19:42:11.540Z,6.35
2023-05-09T19:44:40.631Z,6.24
2023-05-09T19:47:09.277Z,6.14
2023-05-09T19:49:36.470Z,6.00
2023-05-09T19:52:03.728Z,5.92
2023-05-09T19:54:32.149Z,5.82
2023-05-09T19:56:59.505Z,5.74
2023-05-09T19:59:27.035Z,5.64
2023-05-09T20:01:54.151Z,5.53
2023-05-09T20:04:22.148Z,5.37
2023-05-09T20:06:49.248Z,5.17
2023-05-09T20:09:21.089Z,4.97
2023-05-09T20:11:48.714Z,4.79
2023-05-09T20:14:15.892Z,4.61
2023-05-09T20:16:44.216Z,4.46
2023-05-09T20:19:14.999Z,4.30
2023-05-09T20:21:42.235Z,4.13
2023-05-09T20:24:09.694Z,4.00
2023-05-09T20:26:36.974Z,3.90
2023-05-09T20:29:03.896Z,3.84
2023-05-09T20:31:31.982Z,3.80
2023-05-09T20:33:59.564Z,3.74
2023-05-09T20:36:28.196Z,3.71
2023-05-09T20:38:56.638Z,3.60
2023-05-09T20:41:27.224Z,3.49
2023-05-09T20:43:54.520Z,3.32
2023-05-09T20:46:21.807Z,3.15
2023-05-09T20:48:49.016Z,3.00
2023-05-09T20:51:16.251Z,2.87
2023-05-09T20:53:43.308Z,2.78
2023-05-09T20:56:10.755Z,2.74
2023-05-09T20:58:37.918Z,2.75
2023-05-09T21:01:05.005Z,2.81
2023-05-09T21:03:32.537Z,2.85
2023-05-09T21:05:59.754Z,2.91
2023-05-09T21:08:27.007Z,2.98
2023-05-09T21:10:54.579Z,3.05
2023-05-09T21:13:21.697Z,3.08
2023-05-09T21:15:50.551Z,3.07
2023-05-09T21:18:17.725Z,3.04
2023-05-09T21:20:45.681Z,3.00
2023-05-09T21:23:13.031Z,2.90
2023-05-09T21:25:40.201Z,2.76
2023-05-09T21:28:07.156Z,2.61
2023-05-09T21:30:34.245Z,2.53
2023-05-09T21:33:01.661Z,2.49
2023-05-09T21:35:28.884Z,2.48
2023-05-09T21:37:55.791Z,2.44
2023-05-09T21:40:23.151Z,2.39
2023-05-09T21:42:50.391Z,2.30
2023-05-09T21:45:19.009Z,2.17
2023-05-09T21:47:46.345Z,2.07
2023-05-09T21:50:14.113Z,2.00
2023-05-09T21:52:41.684Z,1.89
2023-05-09T21:55:09.697Z,1.82
2023-05-09T21:57:36.795Z,1.78
2023-05-09T22:00:05.756Z,1.76
2023-05-09T22:02:43.034Z,1.71
2023-05-09T22:05:11.148Z,1.64
2023-05-09T22:07:38.332Z,1.58
2023-05-09T22:10:06.446Z,1.55
2023-05-09T22:12:33.491Z,1.52
2023-05-09T22:15:00.653Z,1.51
2023-05-09T22:17:28.053Z,1.45
2023-05-09T22:19:55.274Z,1.42
2023-05-09T22:22:22.586Z,1.40
2023-05-09T22:24:49.894Z,1.32
2023-05-09T22:27:16.887Z,1.21
2023-05-09T22:29:44.077Z,1.17
2023-05-09T22:32:11.825Z,1.14
2023-05-09T22:34:39.105Z,1.11
2023-05-09T22:37:06.384Z,1.09
2023-05-09T22:39:33.475Z,1.10
2023-05-09T22:42:02.578Z,1.13
2023-05-09T22:44:29.870Z,1.15
2023-05-09T22:46:56.851Z,1.13
2023-05-09T22:49:24.340Z,1.12
2023-05-09T22:51:51.619Z,1.10
2023-05-09T22:54:21.695Z,1.11
2023-05-09T22:56:48.653Z,1.10
2023-05-09T22:59:15.630Z,1.10
2023-05-09T23:01:42.871Z,1.11
2023-05-09T23:04:10.031Z,1.15
2023-05-09T23:06:37.169Z,1.15
2023-05-09T23:09:04.429Z,1.16
2023-05-09T23:11:31.416Z,1.18
2023-05-09T23:13:58.479Z,1.20
2023-05-09T23:16:25.563Z,1.24
2023-05-09T23:18:53.060Z,1.29
2023-05-09T23:21:20.373Z,1.34
2023-05-09T23:23:47.474Z,1.38
2023-05-09T23:26:16.038Z,1.44
2023-05-09T23:28:43.139Z,1.52
2023-05-09T23:31:10.720Z,1.60
2023-05-09T23:33:37.754Z,1.71
2023-05-09T23:36:05.586Z,1.81
2023-05-09T23:38:32.795Z,1.91
2023-05-09T23:41:01.393Z,2.04
2023-05-09T23:43:29.208Z,2.15
2023-05-09T23:45:59.544Z,2.25
2023-05-09T23:48:27.090Z,2.36
2023-05-09T23:50:54.198Z,2.48
2023-05-09T23:53:21.437Z,2.56
2023-05-09T23:55:48.971Z,2.65
2023-05-09T23:58:18.534Z,2.70
